createdAt,value
2018-07-25T00:00:23.867Z,98777.77
2018-07-25T00:02:58.290Z,98780.16
2018-07-25T00:05:32.601Z,98785.51
2018-07-25T00:08:07.046Z,98782.95
2018-07-25T00:10:47.764Z,98779.77
2018-07-25T00:13:23.564Z,98780.16
2018-07-25T00:15:58.219Z,98776.22
2018-07-25T00:18:33.176Z,98775.23
2018-07-25T00:21:07.660Z,98774.65
2018-07-25T00:23:42.205Z,98772.30
2018-07-25T00:26:16.616Z,98783.20
2018-07-25T00:28:51.124Z,98771.33
2018-07-25T00:31:25.882Z,98774.90
2018-07-25T00:34:00.957Z,98773.13
2018-07-25T00:36:35.813Z,98775.28
2018-07-25T00:39:11.006Z,98771.74
2018-07-25T00:41:45.994Z,98771.15
2018-07-25T00:44:20.771Z,98775.52
2018-07-25T00:46:55.450Z,98769.38
2018-07-25T00:49:31.270Z,98770.74
2018-07-25T00:52:05.994Z,98764.98
2018-07-25T00:54:40.552Z,98768.56
2018-07-25T00:57:14.974Z,98767.59
2018-07-25T00:59:49.405Z,98771.18
2018-07-25T01:02:24.390Z,98776.73
2018-07-25T01:04:58.808Z,98765.63
2018-07-25T01:07:33.413Z,98774.70
2018-07-25T01:10:07.936Z,98766.76
2018-07-25T01:12:42.934Z,98766.38
2018-07-25T01:15:17.560Z,98772.52
2018-07-25T01:17:52.071Z,98773.31
2018-07-25T01:20:26.935Z,98774.75
2018-07-25T01:23:01.468Z,98773.94
2018-07-25T01:25:35.820Z,98773.34
2018-07-25T01:28:10.290Z,98774.53
2018-07-25T01:30:44.963Z,98771.76
2018-07-25T01:33:19.820Z,98774.92
2018-07-25T01:35:54.852Z,98773.53
2018-07-25T01:38:29.308Z,98769.62
2018-07-25T01:41:03.974Z,98773.19
2018-07-25T01:43:38.884Z,98770.78
2018-07-25T01:46:14.133Z,98774.94
2018-07-25T01:48:48.617Z,98768.83
2018-07-25T01:51:23.245Z,98771.77
2018-07-25T01:53:57.779Z,98770.19
2018-07-25T01:56:32.833Z,98769.41
2018-07-25T01:59:07.693Z,98769.42
2018-07-25T02:01:42.418Z,98773.37
2018-07-25T02:04:17.285Z,98774.53
2018-07-25T02:06:52.087Z,98771.56
2018-07-25T02:09:27.380Z,98774.95
2018-07-25T02:12:01.804Z,98774.17
2018-07-25T02:14:36.414Z,98772.59
2018-07-25T02:17:11.153Z,98778.89
2018-07-25T02:19:45.755Z,98779.69
2018-07-25T02:22:20.373Z,98780.08
2018-07-25T02:24:54.980Z,98778.11
2018-07-25T02:27:29.702Z,98776.33
2018-07-25T02:30:04.429Z,98780.28
2018-07-25T02:32:38.882Z,98781.86
2018-07-25T02:35:13.393Z,98781.08
2018-07-25T02:37:47.677Z,98785.23
2018-07-25T02:40:22.520Z,98783.84
2018-07-25T02:42:57.168Z,98790.38
2018-07-25T02:45:35.850Z,98790.53
2018-07-25T02:48:10.945Z,98792.11
2018-07-25T02:50:45.365Z,98801.38
2018-07-25T02:53:19.959Z,98797.60
2018-07-25T02:55:54.605Z,98809.42
2018-07-25T02:58:29.073Z,98809.59
2018-07-25T03:01:03.533Z,98816.88
2018-07-25T03:03:38.141Z,98819.97
2018-07-25T03:06:12.709Z,98823.39
2018-07-25T03:08:47.349Z,98821.25
2018-07-25T03:11:22.124Z,98816.69
2018-07-25T03:13:56.760Z,98824.34
2018-07-25T03:16:31.301Z,98823.12
2018-07-25T03:19:05.757Z,98822.52
2018-07-25T03:21:40.424Z,98818.16
2018-07-25T03:24:15.038Z,98819.87
2018-07-25T03:26:49.584Z,98826.04
2018-07-25T03:29:24.088Z,98827.70
2018-07-25T03:31:58.638Z,98831.19
2018-07-25T03:34:33.057Z,98832.65
2018-07-25T03:37:07.536Z,98828.42
2018-07-25T03:39:41.916Z,98835.13
2018-07-25T03:42:16.378Z,98836.80
2018-07-25T03:44:50.983Z,98837.77
2018-07-25T03:47:25.416Z,98843.59
2018-07-25T03:50:00.102Z,98841.41
2018-07-25T03:52:34.814Z,98843.27
2018-07-25T03:55:09.649Z,98842.70
2018-07-25T03:57:44.110Z,98834.30
2018-07-25T04:00:18.509Z,98835.48
2018-07-25T04:02:53.530Z,98832.56
2018-07-25T04:05:27.972Z,98839.59
2018-07-25T04:08:02.551Z,98839.91
2018-07-25T04:10:37.114Z,98840.62
2018-07-25T04:13:11.687Z,98840.00
2018-07-25T04:15:46.368Z,98842.72
2018-07-25T04:18:20.985Z,98836.82
2018-07-25T04:20:55.699Z,98845.55
2018-07-25T04:23:30.316Z,98843.19
2018-07-25T04:26:05.098Z,98848.08
2018-07-25T04:28:39.504Z,98851.21
2018-07-25T04:31:13.897Z,98851.84
2018-07-25T04:33:48.267Z,98857.36
2018-07-25T04:36:22.821Z,98857.15
2018-07-25T04:38:57.457Z,98855.59
2018-07-25T04:41:32.146Z,98853.91
2018-07-25T04:44:06.820Z,98862.56
2018-07-25T04:46:41.500Z,98864.19
2018-07-25T04:49:16.199Z,98870.20
2018-07-25T04:51:50.856Z,98871.55
2018-07-25T04:54:25.378Z,98866.13
2018-07-25T04:56:59.841Z,98873.66
2018-07-25T04:59:34.329Z,98865.41
2018-07-25T05:02:09.019Z,98866.74
2018-07-25T05:04:43.621Z,98871.80
2018-07-25T05:07:18.170Z,98872.06
2018-07-25T05:09:52.665Z,98880.35
2018-07-25T05:12:27.233Z,98879.77
2018-07-25T05:15:02.078Z,98881.97
2018-07-25T05:17:36.666Z,98878.17
2018-07-25T05:20:11.271Z,98878.44
2018-07-25T05:22:46.527Z,98877.53
2018-07-25T05:25:21.272Z,98887.55
2018-07-25T05:27:55.849Z,98887.03
2018-07-25T05:30:30.555Z,98890.71
2018-07-25T05:33:05.231Z,98883.73
2018-07-25T05:35:39.638Z,98895.12
2018-07-25T05:38:14.114Z,98895.76
2018-07-25T05:40:48.476Z,98896.62
2018-07-25T05:46:21.901Z,98896.27
2018-07-25T05:48:56.882Z,98900.66
2018-07-25T05:51:31.473Z,98901.51
2018-07-25T05:54:06.070Z,98901.09
2018-07-25T05:56:40.589Z,98910.22
2018-07-25T05:59:15.148Z,98907.61
2018-07-25T06:01:49.845Z,98904.44
2018-07-25T06:04:24.305Z,98906.62
2018-07-25T06:06:58.734Z,98904.42
2018-07-25T06:09:33.173Z,98909.95
2018-07-25T06:12:07.634Z,98911.05
2018-07-25T06:14:42.218Z,98911.58
2018-07-25T06:17:16.670Z,98915.69
2018-07-25T06:19:51.277Z,98917.30
2018-07-25T06:22:25.817Z,98921.61
2018-07-25T06:25:00.204Z,98928.17
2018-07-25T06:27:34.920Z,98924.63
2018-07-25T06:30:09.429Z,98933.08
2018-07-25T06:32:44.021Z,98937.80
2018-07-25T06:35:18.602Z,98928.91
2018-07-25T06:37:53.318Z,98933.00
2018-07-25T06:40:27.921Z,98934.02
2018-07-25T06:43:02.382Z,98943.20
2018-07-25T06:45:36.795Z,98946.57
2018-07-25T06:48:11.232Z,98946.38
2018-07-25T06:50:45.678Z,98951.24
2018-07-25T06:53:20.212Z,98949.55
2018-07-25T06:55:54.561Z,98963.08
2018-07-25T06:58:28.930Z,98958.54
2018-07-25T07:01:03.327Z,98957.59
2018-07-25T07:03:38.218Z,98958.52
2018-07-25T07:06:12.790Z,98962.28
2018-07-25T07:08:47.421Z,98964.97
2018-07-25T07:11:21.889Z,98966.75
2018-07-25T07:13:56.805Z,98966.88
2018-07-25T07:16:31.438Z,98965.95
2018-07-25T07:19:06.063Z,98962.59
2018-07-25T07:21:40.650Z,98964.73
2018-07-25T07:24:15.261Z,98968.44
2018-07-25T07:26:49.796Z,98965.23
2018-07-25T07:29:24.199Z,98968.68
2018-07-25T07:31:58.542Z,98970.38
2018-07-25T07:34:33.185Z,98971.36
2018-07-25T07:37:07.660Z,98968.80
2018-07-25T07:39:42.281Z,98972.05
2018-07-25T07:42:16.744Z,98970.02
2018-07-25T07:44:51.120Z,98969.52
2018-07-25T07:47:25.961Z,98975.50
2018-07-25T07:50:00.496Z,98977.41
2018-07-25T07:52:35.188Z,98974.17
2018-07-25T07:55:09.704Z,98972.96
2018-07-25T07:57:44.074Z,98972.95
2018-07-25T08:00:18.760Z,98977.90
2018-07-25T08:02:53.810Z,98982.01
2018-07-25T08:05:28.373Z,98983.11
2018-07-25T08:08:02.986Z,98982.41
2018-07-25T08:10:37.568Z,98985.75
2018-07-25T08:13:12.052Z,98988.81
2018-07-25T08:15:46.753Z,98993.22
2018-07-25T08:18:21.404Z,98990.58
2018-07-25T08:20:55.923Z,98987.72
2018-07-25T08:23:30.298Z,98990.69
2018-07-25T08:26:04.824Z,98998.24
2018-07-25T08:28:39.148Z,98989.30
2018-07-25T08:31:13.547Z,98994.83
2018-07-25T08:33:48.297Z,98992.54
2018-07-25T08:36:22.572Z,98982.41
2018-07-25T08:38:57.035Z,98990.82
2018-07-25T08:41:31.440Z,98987.47
2018-07-25T08:44:06.952Z,98984.11
2018-07-25T08:46:41.522Z,98986.57
2018-07-25T08:49:15.775Z,98988.53
2018-07-25T08:51:50.366Z,98987.22
2018-07-25T08:54:26.970Z,98985.01
2018-07-25T08:57:01.268Z,98982.17
2018-07-25T08:59:38.699Z,98984.84
2018-07-25T09:02:36.163Z,98981.79
2018-07-25T09:05:22.859Z,98982.19
2018-07-25T09:08:01.386Z,98987.36
2018-07-25T09:10:48.341Z,98985.84
2018-07-25T09:13:30.923Z,98987.64
2018-07-25T09:16:05.239Z,98983.48
2018-07-25T09:24:39.850Z,98982.84
2018-07-25T09:27:14.561Z,98971.41
2018-07-25T09:30:05.121Z,98985.02
2018-07-25T09:32:39.500Z,98987.37
2018-07-25T09:35:13.895Z,98981.25
2018-07-25T09:37:48.398Z,98981.42
2018-07-25T09:40:22.799Z,98986.34
2018-07-25T09:42:57.273Z,98987.76
2018-07-25T09:45:31.535Z,98982.44
2018-07-25T09:48:06.291Z,98977.70
2018-07-25T09:50:41.001Z,98973.94
2018-07-25T09:53:15.655Z,98977.78
2018-07-25T09:55:49.831Z,98979.09
2018-07-25T09:58:24.263Z,98975.66
2018-07-25T10:00:58.700Z,98977.13
2018-07-25T10:03:33.089Z,98980.80
2018-07-25T10:06:07.391Z,98978.91
2018-07-25T10:08:41.815Z,98985.27
2018-07-25T10:11:16.236Z,98975.98
2018-07-25T10:13:51.419Z,98976.35
2018-07-25T10:16:25.913Z,98981.89
2018-07-25T10:19:00.380Z,98980.36
2018-07-25T10:21:35.068Z,98973.63
2018-07-25T10:24:09.457Z,98972.76
2018-07-25T10:26:44.012Z,98977.70
2018-07-25T10:29:18.220Z,98973.30
2018-07-25T10:31:52.598Z,98976.12
2018-07-25T10:34:27.307Z,98963.69
2018-07-25T10:37:01.966Z,98970.38
2018-07-25T10:39:36.256Z,98965.55
2018-07-25T10:42:10.684Z,98966.92
2018-07-25T10:44:45.236Z,98965.88
2018-07-25T10:47:19.683Z,98964.99
2018-07-25T10:49:53.999Z,98973.48
2018-07-25T10:55:27.836Z,98971.30
2018-07-25T11:00:35.702Z,98968.34
2018-07-25T11:06:09.792Z,98965.70
2018-07-25T11:08:44.267Z,98962.56
2018-07-25T11:11:18.717Z,98965.92
2018-07-25T11:13:53.140Z,98965.70
2018-07-25T11:16:27.603Z,98961.39
2018-07-25T11:19:01.929Z,98953.10
2018-07-25T11:21:36.259Z,98958.09
2018-07-25T11:24:10.972Z,98951.55
2018-07-25T11:26:45.417Z,98947.55
2018-07-25T11:29:20.454Z,98946.73
2018-07-25T11:31:54.881Z,98945.34
2018-07-25T11:34:29.706Z,98941.22
2018-07-25T11:37:04.008Z,98939.02
2018-07-25T11:39:38.460Z,98935.16
2018-07-25T11:42:12.849Z,98929.50
2018-07-25T11:44:47.172Z,98936.00
2018-07-25T11:47:21.585Z,98930.67
2018-07-25T11:49:55.999Z,98934.19
2018-07-25T11:52:30.251Z,98932.11
2018-07-25T11:55:05.344Z,98928.83
2018-07-25T11:57:39.932Z,98935.27
2018-07-25T12:00:14.472Z,98930.80
2018-07-25T12:02:48.688Z,98919.45
2018-07-25T12:05:23.161Z,98923.88
2018-07-25T12:07:57.589Z,98925.66
2018-07-25T12:10:32.308Z,98923.88
2018-07-25T12:13:07.034Z,98913.80
2018-07-25T12:15:41.638Z,98913.69
2018-07-25T12:18:16.085Z,98906.75
2018-07-25T12:20:50.353Z,98901.92
2018-07-25T12:23:24.811Z,98896.08
2018-07-25T12:25:59.246Z,98894.34
2018-07-25T12:28:33.820Z,98905.38
2018-07-25T12:31:08.552Z,98895.04
2018-07-25T12:33:42.856Z,98894.87
2018-07-25T12:36:17.488Z,98898.02
2018-07-25T12:38:51.675Z,98891.90
2018-07-25T12:41:25.983Z,98894.81
2018-07-25T12:44:00.321Z,98889.59
2018-07-25T12:46:34.709Z,98895.59
2018-07-25T12:49:09.087Z,98900.44
2018-07-25T12:51:43.563Z,98896.20
2018-07-25T12:54:17.973Z,98892.81
2018-07-25T12:56:52.503Z,98893.46
2018-07-25T12:59:26.831Z,98889.20
2018-07-25T13:02:01.248Z,98895.40
2018-07-25T13:04:35.740Z,98900.20
2018-07-25T13:07:10.097Z,98906.42
2018-07-25T13:09:44.505Z,98910.80
2018-07-25T13:12:18.819Z,98918.82
2018-07-25T13:14:53.159Z,98926.81
2018-07-25T13:17:27.522Z,98926.72
2018-07-25T13:20:01.902Z,98931.61
2018-07-25T13:22:36.275Z,98931.78
2018-07-25T13:25:10.728Z,98938.20
2018-07-25T13:27:45.293Z,98944.84
2018-07-25T13:30:19.623Z,98952.98
2018-07-25T13:32:54.355Z,98958.23
2018-07-25T13:35:28.890Z,98957.67
2018-07-25T13:38:03.683Z,98944.34
2018-07-25T13:40:37.969Z,98949.54
2018-07-25T13:43:12.389Z,98942.07
2018-07-25T13:45:48.222Z,98935.22
2018-07-25T13:48:23.041Z,98937.18
2018-07-25T13:50:57.682Z,98928.17
2018-07-25T13:53:32.329Z,98920.69
2018-07-25T13:56:06.908Z,98909.40
2018-07-25T13:58:41.377Z,98909.90
2018-07-25T14:01:15.834Z,98901.75
2018-07-25T14:03:50.261Z,98904.33
2018-07-25T14:06:24.910Z,98901.40
2018-07-25T14:08:59.528Z,98902.90
2018-07-25T14:11:34.332Z,98900.52
2018-07-25T14:14:09.264Z,98894.06
2018-07-25T14:16:43.666Z,98887.53
2018-07-25T14:19:18.273Z,98882.58
2018-07-25T14:21:52.808Z,98879.91
2018-07-25T14:24:27.343Z,98881.31
2018-07-25T14:27:01.721Z,98877.83
2018-07-25T14:29:36.054Z,98882.23
2018-07-25T14:32:11.346Z,98884.89
2018-07-25T14:34:50.043Z,98889.96
2018-07-25T14:37:25.694Z,98890.13
2018-07-25T14:40:00.327Z,98894.51
2018-07-25T14:42:34.819Z,98892.34
2018-07-25T14:45:09.251Z,98896.19
2018-07-25T14:47:43.782Z,98895.23
2018-07-25T14:50:18.788Z,98900.28
2018-07-25T14:52:53.266Z,98893.55
2018-07-25T14:55:27.865Z,98896.87
2018-07-25T14:58:02.580Z,98894.03
2018-07-25T15:00:37.483Z,98886.95
2018-07-25T15:03:12.065Z,98887.12
2018-07-25T15:05:46.965Z,98886.04
2018-07-25T15:08:23.250Z,98885.09
2018-07-25T15:10:58.568Z,98889.41
2018-07-25T15:13:33.057Z,98880.86
2018-07-25T15:16:07.862Z,98881.39
2018-07-25T15:18:42.508Z,98877.28
2018-07-25T15:21:16.979Z,98874.51
2018-07-25T15:24:00.058Z,98870.22
2018-07-25T15:26:34.717Z,98872.50
2018-07-25T15:29:09.401Z,98873.20
2018-07-25T15:31:43.945Z,98877.42
2018-07-25T15:34:18.413Z,98875.47
2018-07-25T15:36:53.921Z,98867.16
2018-07-25T15:39:29.126Z,98866.28
2018-07-25T15:42:03.672Z,98867.74
2018-07-25T15:47:37.535Z,98860.48
2018-07-25T15:50:24.313Z,98854.97
2018-07-25T15:52:58.813Z,98853.70
2018-07-25T15:55:33.710Z,98852.14
2018-07-25T15:58:08.273Z,98845.93
2018-07-25T16:00:43.240Z,98849.95
2018-07-25T16:03:27.609Z,98853.73
2018-07-25T16:06:02.524Z,98846.00
2018-07-25T16:08:37.161Z,98850.91
2018-07-25T16:11:12.002Z,98852.22
2018-07-25T16:13:46.684Z,98851.80
2018-07-25T16:16:21.096Z,98848.36
2018-07-25T16:18:55.523Z,98846.90
2018-07-25T16:21:29.927Z,98840.59
2018-07-25T16:24:04.349Z,98835.33
2018-07-25T16:26:38.750Z,98843.37
2018-07-25T16:29:13.441Z,98832.44
2018-07-25T16:31:47.812Z,98837.59
2018-07-25T16:37:19.152Z,98828.16
2018-07-25T16:39:53.460Z,98831.75
2018-07-25T16:42:27.872Z,98828.34
2018-07-25T16:45:02.312Z,98834.98
2018-07-25T16:47:36.883Z,98830.17
2018-07-25T16:50:11.259Z,98840.09
2018-07-25T16:52:45.617Z,98843.59
2018-07-25T16:55:20.086Z,98843.58
2018-07-25T16:57:54.532Z,98841.14
2018-07-25T17:00:28.935Z,98844.83
2018-07-25T17:03:03.375Z,98846.41
2018-07-25T17:05:37.751Z,98850.23
2018-07-25T17:08:12.127Z,98849.50
2018-07-25T17:10:46.500Z,98853.78
2018-07-25T17:13:20.961Z,98851.38
2018-07-25T17:15:55.359Z,98862.34
2018-07-25T17:18:30.088Z,98860.47
2018-07-25T17:21:04.391Z,98862.02
2018-07-25T17:23:38.840Z,98865.30
2018-07-25T17:26:13.186Z,98868.27
2018-07-25T17:28:47.395Z,98867.20
2018-07-25T17:31:21.816Z,98870.56
2018-07-25T17:33:56.104Z,98875.97
2018-07-25T17:36:30.523Z,98871.13
2018-07-25T17:39:08.293Z,98867.11
2018-07-25T17:41:42.895Z,98877.44
2018-07-25T17:44:17.193Z,98883.20
2018-07-25T17:47:01.467Z,98893.41
2018-07-25T17:49:35.900Z,98890.30
2018-07-25T17:52:17.311Z,98887.32
2018-07-25T17:54:51.951Z,98888.05
2018-07-25T17:57:26.375Z,98888.07
2018-07-25T18:00:00.796Z,98889.74
2018-07-25T18:02:35.226Z,98888.05
2018-07-25T18:05:10.389Z,98883.68
2018-07-25T18:07:44.709Z,98892.84
2018-07-25T18:10:21.295Z,98893.56
2018-07-25T18:13:01.106Z,98895.81
2018-07-25T18:15:35.898Z,98895.27
2018-07-25T18:18:10.275Z,98902.55
2018-07-25T18:20:44.588Z,98902.42
2018-07-25T18:23:18.891Z,98905.02
2018-07-25T18:25:53.203Z,98909.09
2018-07-25T18:28:27.867Z,98906.53
2018-07-25T18:31:02.167Z,98906.28
2018-07-25T18:33:36.567Z,98918.91
2018-07-25T18:36:10.999Z,98918.35
2018-07-25T18:38:45.423Z,98924.67
2018-07-25T18:41:19.904Z,98924.88
2018-07-25T18:43:54.295Z,98919.52
2018-07-25T18:46:29.107Z,98926.72
2018-07-25T18:49:03.728Z,98926.53
2018-07-25T18:51:38.279Z,98927.61
2018-07-25T18:57:11.793Z,98942.20
2018-07-25T18:59:46.184Z,98941.70
2018-07-25T19:02:20.483Z,98946.13
2018-07-25T19:04:54.859Z,98948.92
2018-07-25T19:07:29.367Z,98950.94
2018-07-25T19:10:03.760Z,98954.00
2018-07-25T19:12:38.143Z,98953.26
2018-07-25T19:15:18.167Z,98953.26
2018-07-25T19:17:52.897Z,98961.06
2018-07-25T19:20:27.544Z,98964.22
2018-07-25T19:23:01.960Z,98966.45
2018-07-25T19:25:36.368Z,98972.29
2018-07-25T19:28:10.720Z,98975.16
2018-07-25T19:30:45.210Z,98966.15
2018-07-25T19:33:19.616Z,98972.59
2018-07-25T19:35:54.054Z,98966.50
2018-07-25T19:38:28.584Z,98975.65
2018-07-25T19:41:03.976Z,98975.08
2018-07-25T19:43:38.392Z,98979.52
2018-07-25T19:46:12.950Z,98977.02
2018-07-25T19:48:47.445Z,98973.92
2018-07-25T19:51:21.961Z,98962.98
2018-07-25T19:53:56.488Z,98971.52
2018-07-25T19:56:31.090Z,98965.27
2018-07-25T19:59:05.837Z,98967.03
2018-07-25T20:01:40.284Z,98962.52
2018-07-25T20:04:14.792Z,98958.53
2018-07-25T20:06:49.772Z,98951.03
2018-07-25T20:09:24.387Z,98960.93
2018-07-25T20:11:58.827Z,98961.97
2018-07-25T20:14:38.553Z,98962.81
2018-07-25T20:17:14.000Z,98955.94
2018-07-25T20:19:48.695Z,98953.23
2018-07-25T20:22:23.017Z,98951.51
2018-07-25T20:24:57.341Z,98954.77
2018-07-25T20:27:31.989Z,98948.22
2018-07-25T20:30:08.124Z,98951.61
2018-07-25T20:32:42.483Z,98948.46
2018-07-25T20:35:16.861Z,98941.75
2018-07-25T20:37:51.496Z,98944.53
2018-07-25T20:40:25.989Z,98946.29
2018-07-25T20:43:00.521Z,98943.33
2018-07-25T20:45:35.061Z,98951.06
2018-07-25T20:48:09.512Z,98938.95
2018-07-25T20:50:43.959Z,98935.39
2018-07-25T20:53:18.374Z,98934.84
2018-07-25T20:55:52.776Z,98934.64
2018-07-25T20:58:27.217Z,98936.84
2018-07-25T21:01:01.857Z,98947.73
2018-07-25T21:03:36.354Z,98945.78
2018-07-25T21:06:11.000Z,98945.42
2018-07-25T21:08:45.585Z,98949.02
2018-07-25T21:11:20.488Z,98951.22
2018-07-25T21:13:55.091Z,98963.09
2018-07-25T21:16:29.641Z,98951.20
2018-07-25T21:19:04.241Z,98953.39
2018-07-25T21:21:38.802Z,98959.56
2018-07-25T21:24:13.297Z,98963.54
2018-07-25T21:26:47.752Z,98962.33
2018-07-25T21:29:22.476Z,98964.91
2018-07-25T21:31:57.139Z,98964.30
2018-07-25T21:34:31.721Z,98967.67
2018-07-25T21:37:06.277Z,98970.64
2018-07-25T21:39:40.668Z,98973.83
2018-07-25T21:42:15.535Z,98976.40
2018-07-25T21:44:50.164Z,98980.16
2018-07-25T21:47:24.724Z,98979.77
2018-07-25T21:49:59.338Z,98973.83
2018-07-25T21:52:34.017Z,98980.16
2018-07-25T21:55:08.249Z,98977.00
2018-07-25T21:57:42.711Z,98986.52
2018-07-25T22:00:17.902Z,98989.69
2018-07-25T22:02:52.583Z,98981.36
2018-07-25T22:05:27.080Z,98981.14
2018-07-25T22:08:01.737Z,98974.59
2018-07-25T22:10:36.332Z,98972.02
2018-07-25T22:13:11.011Z,98969.05
2018-07-25T22:15:45.719Z,98973.20
2018-07-25T22:18:20.196Z,98969.64
2018-07-25T22:20:54.900Z,98973.40
2018-07-25T22:23:29.565Z,98969.44
2018-07-25T22:26:04.032Z,98969.97
2018-07-25T22:28:38.572Z,98973.13
2018-07-25T22:31:13.328Z,98972.33
2018-07-25T22:33:48.313Z,98969.56
2018-07-25T22:36:22.714Z,98966.04
2018-07-25T22:38:57.388Z,98969.01
2018-07-25T22:41:32.078Z,98970.20
2018-07-25T22:44:06.921Z,98966.23
2018-07-25T22:46:41.326Z,98961.12
2018-07-25T22:49:15.805Z,98964.89
2018-07-25T22:51:50.241Z,98962.11
2018-07-25T22:54:24.902Z,98965.88
2018-07-25T22:56:59.400Z,98966.47
2018-07-25T22:59:34.037Z,98967.85
2018-07-25T23:02:08.732Z,98967.59
2018-07-25T23:04:43.144Z,98973.32
2018-07-25T23:07:17.557Z,98971.14
2018-07-25T23:09:52.140Z,98959.11
2018-07-25T23:12:26.837Z,98960.69
2018-07-25T23:15:01.645Z,98964.06
2018-07-25T23:17:35.976Z,98961.05
2018-07-25T23:20:10.419Z,98950.56
2018-07-25T23:22:54.627Z,98955.71
2018-07-25T23:25:30.153Z,98955.30
2018-07-25T23:28:04.658Z,98957.28
2018-07-25T23:30:39.320Z,98957.09
2018-07-25T23:33:13.972Z,98945.80
2018-07-25T23:35:48.455Z,98948.17
2018-07-25T23:38:22.900Z,98946.38
2018-07-25T23:40:57.536Z,98945.80
2018-07-25T23:43:32.034Z,98950.14
2018-07-25T23:46:06.476Z,98949.94
2018-07-25T23:48:41.189Z,98947.56
2018-07-25T23:51:15.797Z,98944.41
2018-07-25T23:56:49.764Z,98937.27
2018-07-25T23:59:24.325Z,98937.67
